sensor_id;sensor_type;location;lat;lon;timestamp;temperature;humidity
573;DHT22;271;51.114;13.780;2022-11-15T00:00:46;8.70;1.00
573;DHT22;271;51.114;13.780;2022-11-15T00:03:14;8.70;1.00
573;DHT22;271;51.114;13.780;2022-11-15T00:05:42;8.70;1.00
573;DHT22;271;51.114;13.780;2022-11-15T00:08:10;8.70;1.00
573;DHT22;271;51.114;13.780;2022-11-15T00:10:39;8.60;1.00
573;DHT22;271;51.114;13.780;2022-11-15T00:13:06;8.70;1.00
573;DHT22;271;51.114;13.780;2022-11-15T00:15:35;8.70;1.00
573;DHT22;271;51.114;13.780;2022-11-15T00:18:03;8.60;1.00
573;DHT22;271;51.114;13.780;2022-11-15T00:20:30;8.70;1.00
573;DHT22;271;51.114;13.780;2022-11-15T00:22:58;8.60;1.00
573;DHT22;271;51.114;13.780;2022-11-15T00:25:26;8.70;1.00
573;DHT22;271;51.114;13.780;2022-11-15T00:27:56;8.70;1.00
573;DHT22;271;51.114;13.780;2022-11-15T00:33:44;8.60;1.00
573;DHT22;271;51.114;13.780;2022-11-15T00:36:12;8.60;1.00
573;DHT22;271;51.114;13.780;2022-11-15T00:38:40;8.50;1.00
573;DHT22;271;51.114;13.780;2022-11-15T00:41:08;8.50;1.00
573;DHT22;271;51.114;13.780;2022-11-15T00:43:37;8.50;1.00
573;DHT22;271;51.114;13.780;2022-11-15T00:46:05;8.50;1.00
573;DHT22;271;51.114;13.780;2022-11-15T00:48:34;8.50;1.00
573;DHT22;271;51.114;13.780;2022-11-15T00:51:01;8.40;1.00
573;DHT22;271;51.114;13.780;2022-11-15T00:53:29;8.50;1.00
573;DHT22;271;51.114;13.780;2022-11-15T00:55:56;8.40;1.00
573;DHT22;271;51.114;13.780;2022-11-15T00:58:24;8.40;1.00
573;DHT22;271;51.114;13.780;2022-11-15T01:00:52;8.40;1.00
573;DHT22;271;51.114;13.780;2022-11-15T01:03:20;8.40;1.00
573;DHT22;271;51.114;13.780;2022-11-15T01:05:48;8.40;1.00
573;DHT22;271;51.114;13.780;2022-11-15T01:08:15;8.30;1.00
573;DHT22;271;51.114;13.780;2022-11-15T01:10:43;8.30;1.00
573;DHT22;271;51.114;13.780;2022-11-15T01:13:10;8.30;1.00
573;DHT22;271;51.114;13.780;2022-11-15T01:15:39;8.30;1.00
573;DHT22;271;51.114;13.780;2022-11-15T01:18:08;8.30;1.00
573;DHT22;271;51.114;13.780;2022-11-15T01:20:39;8.20;1.00
573;DHT22;271;51.114;13.780;2022-11-15T01:23:07;8.30;1.00
573;DHT22;271;51.114;13.780;2022-11-15T01:25:34;8.20;1.00
573;DHT22;271;51.114;13.780;2022-11-15T01:28:01;8.20;1.00
573;DHT22;271;51.114;13.780;2022-11-15T01:30:29;8.20;1.00
573;DHT22;271;51.114;13.780;2022-11-15T01:32:56;8.20;1.00
573;DHT22;271;51.114;13.780;2022-11-15T01:35:25;8.20;1.00
573;DHT22;271;51.114;13.780;2022-11-15T01:37:52;8.20;1.00
573;DHT22;271;51.114;13.780;2022-11-15T01:40:20;8.10;1.00
573;DHT22;271;51.114;13.780;2022-11-15T01:42:47;8.10;1.00
573;DHT22;271;51.114;13.780;2022-11-15T01:45:15;8.10;1.00
573;DHT22;271;51.114;13.780;2022-11-15T01:47:45;8.10;1.00
573;DHT22;271;51.114;13.780;2022-11-15T01:50:16;8.20;1.00
573;DHT22;271;51.114;13.780;2022-11-15T01:52:46;8.10;1.00
573;DHT22;271;51.114;13.780;2022-11-15T01:55:16;8.10;1.00
573;DHT22;271;51.114;13.780;2022-11-15T01:57:47;8.10;1.00
573;DHT22;271;51.114;13.780;2022-11-15T02:00:16;8.00;1.00
573;DHT22;271;51.114;13.780;2022-11-15T02:02:44;8.20;1.00
573;DHT22;271;51.114;13.780;2022-11-15T02:05:11;8.10;1.00
573;DHT22;271;51.114;13.780;2022-11-15T02:07:38;8.10;1.00
573;DHT22;271;51.114;13.780;2022-11-15T02:10:12;8.10;1.00
573;DHT22;271;51.114;13.780;2022-11-15T02:12:40;8.20;1.00
573;DHT22;271;51.114;13.780;2022-11-15T02:15:09;8.20;1.00
573;DHT22;271;51.114;13.780;2022-11-15T02:20:56;8.10;1.00
573;DHT22;271;51.114;13.780;2022-11-15T02:27:04;8.20;1.00
573;DHT22;271;51.114;13.780;2022-11-15T02:29:49;8.10;1.00
573;DHT22;271;51.114;13.780;2022-11-15T02:32:33;8.10;1.00
573;DHT22;271;51.114;13.780;2022-11-15T02:35:10;8.20;1.00
573;DHT22;271;51.114;13.780;2022-11-15T02:37:44;8.10;1.00
573;DHT22;271;51.114;13.780;2022-11-15T02:40:19;8.10;1.00
573;DHT22;271;51.114;13.780;2022-11-15T02:42:53;7.90;1.00
573;DHT22;271;51.114;13.780;2022-11-15T02:46:01;8.00;1.00
573;DHT22;271;51.114;13.780;2022-11-15T02:48:32;8.00;1.00
573;DHT22;271;51.114;13.780;2022-11-15T02:51:01;8.10;1.00
573;DHT22;271;51.114;13.780;2022-11-15T02:53:29;8.10;1.00
573;DHT22;271;51.114;13.780;2022-11-15T02:55:56;8.10;1.00
573;DHT22;271;51.114;13.780;2022-11-15T02:58:48;8.10;1.00
573;DHT22;271;51.114;13.780;2022-11-15T03:01:24;8.10;1.00
573;DHT22;271;51.114;13.780;2022-11-15T03:04:02;8.10;1.00
573;DHT22;271;51.114;13.780;2022-11-15T03:06:42;8.00;1.00
573;DHT22;271;51.114;13.780;2022-11-15T03:09:16;7.90;1.00
573;DHT22;271;51.114;13.780;2022-11-15T03:11:55;7.80;1.00
573;DHT22;271;51.114;13.780;2022-11-15T03:14:27;7.70;1.00
573;DHT22;271;51.114;13.780;2022-11-15T03:17:01;7.60;1.00
573;DHT22;271;51.114;13.780;2022-11-15T03:19:35;7.50;1.00
573;DHT22;271;51.114;13.780;2022-11-15T03:22:08;7.40;1.00
573;DHT22;271;51.114;13.780;2022-11-15T03:24:37;7.20;1.00
573;DHT22;271;51.114;13.780;2022-11-15T03:27:06;7.10;1.00
573;DHT22;271;51.114;13.780;2022-11-15T03:29:39;7.10;1.00
573;DHT22;271;51.114;13.780;2022-11-15T03:32:12;7.00;1.00
573;DHT22;271;51.114;13.780;2022-11-15T03:34:44;6.90;1.00
573;DHT22;271;51.114;13.780;2022-11-15T03:37:16;6.80;1.00
573;DHT22;271;51.114;13.780;2022-11-15T03:39:44;6.70;1.00
573;DHT22;271;51.114;13.780;2022-11-15T03:42:20;6.60;1.00
573;DHT22;271;51.114;13.780;2022-11-15T03:44:54;6.60;1.00
573;DHT22;271;51.114;13.780;2022-11-15T03:47:30;6.60;1.00
573;DHT22;271;51.114;13.780;2022-11-15T03:50:04;6.60;1.00
573;DHT22;271;51.114;13.780;2022-11-15T03:52:34;6.50;1.00
573;DHT22;271;51.114;13.780;2022-11-15T03:55:04;6.50;1.00
573;DHT22;271;51.114;13.780;2022-11-15T03:57:33;6.40;1.00
573;DHT22;271;51.114;13.780;2022-11-15T04:00:00;6.40;1.00
573;DHT22;271;51.114;13.780;2022-11-15T04:02:28;6.30;1.00
573;DHT22;271;51.114;13.780;2022-11-15T04:04:55;6.20;1.00
573;DHT22;271;51.114;13.780;2022-11-15T04:07:24;6.20;1.00
573;DHT22;271;51.114;13.780;2022-11-15T04:09:51;6.10;1.00
573;DHT22;271;51.114;13.780;2022-11-15T04:12:32;6.20;1.00
573;DHT22;271;51.114;13.780;2022-11-15T04:15:01;6.10;1.00
573;DHT22;271;51.114;13.780;2022-11-15T04:17:39;6.10;1.00
573;DHT22;271;51.114;13.780;2022-11-15T04:20:09;6.10;1.00
573;DHT22;271;51.114;13.780;2022-11-15T04:22:57;6.00;1.00
573;DHT22;271;51.114;13.780;2022-11-15T04:25:43;6.00;1.00
573;DHT22;271;51.114;13.780;2022-11-15T04:28:11;6.00;1.00
573;DHT22;271;51.114;13.780;2022-11-15T04:30:39;5.90;1.00
573;DHT22;271;51.114;13.780;2022-11-15T04:33:06;5.90;1.00
573;DHT22;271;51.114;13.780;2022-11-15T04:35:34;5.90;1.00
573;DHT22;271;51.114;13.780;2022-11-15T04:38:04;5.90;1.00
573;DHT22;271;51.114;13.780;2022-11-15T04:40:31;5.80;1.00
573;DHT22;271;51.114;13.780;2022-11-15T04:42:58;5.80;1.00
573;DHT22;271;51.114;13.780;2022-11-15T04:45:26;5.80;1.00
573;DHT22;271;51.114;13.780;2022-11-15T04:47:53;5.90;1.00
573;DHT22;271;51.114;13.780;2022-11-15T04:50:20;5.80;1.00
573;DHT22;271;51.114;13.780;2022-11-15T04:52:51;5.80;1.00
573;DHT22;271;51.114;13.780;2022-11-15T04:55:20;5.80;1.00
573;DHT22;271;51.114;13.780;2022-11-15T04:57:57;5.90;1.00
573;DHT22;271;51.114;13.780;2022-11-15T05:00:24;6.00;1.00
573;DHT22;271;51.114;13.780;2022-11-15T05:02:55;5.90;1.00
573;DHT22;271;51.114;13.780;2022-11-15T05:05:40;5.90;1.00
573;DHT22;271;51.114;13.780;2022-11-15T05:08:07;5.90;1.00
573;DHT22;271;51.114;13.780;2022-11-15T05:10:36;5.90;1.00
573;DHT22;271;51.114;13.780;2022-11-15T05:13:04;5.90;1.00
573;DHT22;271;51.114;13.780;2022-11-15T05:15:31;5.80;1.00
573;DHT22;271;51.114;13.780;2022-11-15T05:17:59;5.70;1.00
573;DHT22;271;51.114;13.780;2022-11-15T05:20:27;5.80;1.00
573;DHT22;271;51.114;13.780;2022-11-15T05:22:54;5.70;1.00
573;DHT22;271;51.114;13.780;2022-11-15T05:25:22;5.70;1.00
573;DHT22;271;51.114;13.780;2022-11-15T05:27:51;5.70;1.00
573;DHT22;271;51.114;13.780;2022-11-15T05:30:19;5.60;1.00
573;DHT22;271;51.114;13.780;2022-11-15T05:32:46;5.60;1.00
573;DHT22;271;51.114;13.780;2022-11-15T05:35:20;5.50;1.00
573;DHT22;271;51.114;13.780;2022-11-15T05:37:48;5.60;1.00
573;DHT22;271;51.114;13.780;2022-11-15T05:40:16;5.50;1.00
573;DHT22;271;51.114;13.780;2022-11-15T05:42:44;5.50;1.00
573;DHT22;271;51.114;13.780;2022-11-15T05:45:13;5.50;1.00
573;DHT22;271;51.114;13.780;2022-11-15T05:47:41;5.40;1.00
573;DHT22;271;51.114;13.780;2022-11-15T05:50:11;5.50;1.00
573;DHT22;271;51.114;13.780;2022-11-15T05:52:39;5.40;1.00
573;DHT22;271;51.114;13.780;2022-11-15T05:55:07;5.40;1.00
573;DHT22;271;51.114;13.780;2022-11-15T05:57:36;5.40;1.00
573;DHT22;271;51.114;13.780;2022-11-15T06:00:05;5.40;1.00
573;DHT22;271;51.114;13.780;2022-11-15T06:02:34;5.40;1.00
573;DHT22;271;51.114;13.780;2022-11-15T06:05:01;5.30;1.00
573;DHT22;271;51.114;13.780;2022-11-15T06:07:29;5.40;1.00
573;DHT22;271;51.114;13.780;2022-11-15T06:09:57;5.50;1.00
573;DHT22;271;51.114;13.780;2022-11-15T06:12:24;5.40;1.00
573;DHT22;271;51.114;13.780;2022-11-15T06:14:51;5.40;1.00
573;DHT22;271;51.114;13.780;2022-11-15T06:17:19;5.50;1.00
573;DHT22;271;51.114;13.780;2022-11-15T06:19:47;5.50;1.00
573;DHT22;271;51.114;13.780;2022-11-15T06:22:15;5.50;1.00
573;DHT22;271;51.114;13.780;2022-11-15T06:24:42;5.50;1.00
573;DHT22;271;51.114;13.780;2022-11-15T06:27:10;5.60;1.00
573;DHT22;271;51.114;13.780;2022-11-15T06:29:38;5.60;1.00
573;DHT22;271;51.114;13.780;2022-11-15T06:32:06;5.60;1.00
573;DHT22;271;51.114;13.780;2022-11-15T06:34:33;5.60;1.00
573;DHT22;271;51.114;13.780;2022-11-15T06:37:03;5.60;1.00
573;DHT22;271;51.114;13.780;2022-11-15T06:39:31;5.60;1.00
573;DHT22;271;51.114;13.780;2022-11-15T06:41:58;5.70;1.00
573;DHT22;271;51.114;13.780;2022-11-15T06:44:25;5.80;1.00
573;DHT22;271;51.114;13.780;2022-11-15T06:46:53;5.80;1.00
573;DHT22;271;51.114;13.780;2022-11-15T06:49:20;5.90;1.00
573;DHT22;271;51.114;13.780;2022-11-15T06:51:47;6.10;1.00
573;DHT22;271;51.114;13.780;2022-11-15T06:54:16;6.20;3.60
573;DHT22;271;51.114;13.780;2022-11-15T06:56:44;6.30;3.20
573;DHT22;271;51.114;13.780;2022-11-15T06:59:11;6.50;6.10
573;DHT22;271;51.114;13.780;2022-11-15T07:01:42;6.60;5.70
573;DHT22;271;51.114;13.780;2022-11-15T07:04:12;6.70;6.80
573;DHT22;271;51.114;13.780;2022-11-15T07:06:39;6.90;3.70
573;DHT22;271;51.114;13.780;2022-11-15T07:09:07;7.00;1.00
573;DHT22;271;51.114;13.780;2022-11-15T07:11:35;7.10;1.00
573;DHT22;271;51.114;13.780;2022-11-15T07:14:03;7.10;1.00
573;DHT22;271;51.114;13.780;2022-11-15T07:16:30;7.10;1.00
573;DHT22;271;51.114;13.780;2022-11-15T07:18:58;7.10;1.00
573;DHT22;271;51.114;13.780;2022-11-15T07:21:25;7.20;1.00
573;DHT22;271;51.114;13.780;2022-11-15T07:23:53;7.30;1.00
573;DHT22;271;51.114;13.780;2022-11-15T07:26:20;7.40;1.00
573;DHT22;271;51.114;13.780;2022-11-15T07:28:49;7.30;1.00
573;DHT22;271;51.114;13.780;2022-11-15T07:31:16;7.40;1.00
573;DHT22;271;51.114;13.780;2022-11-15T07:33:43;7.60;1.00
573;DHT22;271;51.114;13.780;2022-11-15T07:36:11;7.60;1.00
573;DHT22;271;51.114;13.780;2022-11-15T07:38:38;7.70;1.00
573;DHT22;271;51.114;13.780;2022-11-15T07:41:06;7.80;1.00
573;DHT22;271;51.114;13.780;2022-11-15T07:43:33;7.80;1.00
573;DHT22;271;51.114;13.780;2022-11-15T07:46:06;7.90;1.00
573;DHT22;271;51.114;13.780;2022-11-15T07:48:35;8.00;1.00
573;DHT22;271;51.114;13.780;2022-11-15T07:51:03;8.00;1.00
573;DHT22;271;51.114;13.780;2022-11-15T07:53:30;8.20;1.00
573;DHT22;271;51.114;13.780;2022-11-15T07:55:57;8.30;1.00
573;DHT22;271;51.114;13.780;2022-11-15T07:58:25;8.40;1.00
573;DHT22;271;51.114;13.780;2022-11-15T08:00:52;8.40;1.00
573;DHT22;271;51.114;13.780;2022-11-15T08:03:21;8.40;1.00
573;DHT22;271;51.114;13.780;2022-11-15T08:05:50;8.50;1.00
573;DHT22;271;51.114;13.780;2022-11-15T08:08:18;8.60;1.00
573;DHT22;271;51.114;13.780;2022-11-15T08:10:45;8.70;1.00
573;DHT22;271;51.114;13.780;2022-11-15T08:13:13;8.80;1.00
573;DHT22;271;51.114;13.780;2022-11-15T08:15:40;8.90;1.00
573;DHT22;271;51.114;13.780;2022-11-15T08:18:10;9.20;1.00
573;DHT22;271;51.114;13.780;2022-11-15T08:20:40;9.50;1.00
573;DHT22;271;51.114;13.780;2022-11-15T08:23:09;9.90;1.00
573;DHT22;271;51.114;13.780;2022-11-15T08:25:37;10.50;1.00
573;DHT22;271;51.114;13.780;2022-11-15T08:28:06;10.90;1.00
573;DHT22;271;51.114;13.780;2022-11-15T08:30:37;11.40;1.00
573;DHT22;271;51.114;13.780;2022-11-15T08:33:10;11.80;1.00
573;DHT22;271;51.114;13.780;2022-11-15T08:35:42;12.20;1.00
573;DHT22;271;51.114;13.780;2022-11-15T08:38:10;12.30;1.00
573;DHT22;271;51.114;13.780;2022-11-15T08:40:38;12.40;1.00
573;DHT22;271;51.114;13.780;2022-11-15T08:43:05;12.70;1.00
573;DHT22;271;51.114;13.780;2022-11-15T08:45:34;13.10;1.00
573;DHT22;271;51.114;13.780;2022-11-15T08:48:02;13.10;1.00
573;DHT22;271;51.114;13.780;2022-11-15T08:50:30;13.30;1.00
573;DHT22;271;51.114;13.780;2022-11-15T08:53:04;13.40;1.00
573;DHT22;271;51.114;13.780;2022-11-15T08:55:31;13.70;1.00
573;DHT22;271;51.114;13.780;2022-11-15T08:57:59;13.90;1.00
573;DHT22;271;51.114;13.780;2022-11-15T09:00:26;13.90;1.00
573;DHT22;271;51.114;13.780;2022-11-15T09:02:53;13.90;1.00
573;DHT22;271;51.114;13.780;2022-11-15T09:05:21;14.20;1.00
573;DHT22;271;51.114;13.780;2022-11-15T09:07:52;14.50;1.00
573;DHT22;271;51.114;13.780;2022-11-15T09:10:21;14.60;1.00
573;DHT22;271;51.114;13.780;2022-11-15T09:12:52;14.70;1.00
573;DHT22;271;51.114;13.780;2022-11-15T09:15:19;14.60;1.00
573;DHT22;271;51.114;13.780;2022-11-15T09:17:46;14.90;1.00
573;DHT22;271;51.114;13.780;2022-11-15T09:20:14;15.00;1.00
573;DHT22;271;51.114;13.780;2022-11-15T09:22:42;15.10;1.00
573;DHT22;271;51.114;13.780;2022-11-15T09:25:09;15.40;1.00
573;DHT22;271;51.114;13.780;2022-11-15T09:27:38;15.40;1.00
573;DHT22;271;51.114;13.780;2022-11-15T09:30:06;15.70;1.00
573;DHT22;271;51.114;13.780;2022-11-15T09:32:34;16.00;1.00
573;DHT22;271;51.114;13.780;2022-11-15T09:35:01;16.30;1.00
573;DHT22;271;51.114;13.780;2022-11-15T09:37:31;16.70;1.00
573;DHT22;271;51.114;13.780;2022-11-15T09:39:58;16.70;1.00
573;DHT22;271;51.114;13.780;2022-11-15T09:42:43;16.40;1.00
573;DHT22;271;51.114;13.780;2022-11-15T09:45:28;16.30;1.00
573;DHT22;271;51.114;13.780;2022-11-15T09:51:12;16.40;1.00
573;DHT22;271;51.114;13.780;2022-11-15T09:53:47;16.80;1.00
573;DHT22;271;51.114;13.780;2022-11-15T09:56:19;16.70;1.00
573;DHT22;271;51.114;13.780;2022-11-15T09:58:58;16.80;1.00
573;DHT22;271;51.114;13.780;2022-11-15T10:01:36;16.80;1.00
573;DHT22;271;51.114;13.780;2022-11-15T10:04:06;17.10;1.00
573;DHT22;271;51.114;13.780;2022-11-15T10:06:40;17.20;1.00
573;DHT22;271;51.114;13.780;2022-11-15T10:09:14;17.40;1.00
573;DHT22;271;51.114;13.780;2022-11-15T10:11:42;17.40;1.00
573;DHT22;271;51.114;13.780;2022-11-15T10:14:14;17.20;1.00
573;DHT22;271;51.114;13.780;2022-11-15T10:16:55;17.00;1.00
573;DHT22;271;51.114;13.780;2022-11-15T10:19:30;16.80;1.00
573;DHT22;271;51.114;13.780;2022-11-15T10:22:14;16.70;1.00
573;DHT22;271;51.114;13.780;2022-11-15T10:24:44;16.60;1.00
573;DHT22;271;51.114;13.780;2022-11-15T10:27:13;16.70;1.00
573;DHT22;271;51.114;13.780;2022-11-15T10:29:45;16.70;1.00
573;DHT22;271;51.114;13.780;2022-11-15T10:32:14;16.80;1.00
573;DHT22;271;51.114;13.780;2022-11-15T10:34:42;16.70;1.00
573;DHT22;271;51.114;13.780;2022-11-15T10:37:10;16.40;1.00
573;DHT22;271;51.114;13.780;2022-11-15T10:39:38;16.30;1.00
573;DHT22;271;51.114;13.780;2022-11-15T10:42:25;16.10;1.00
573;DHT22;271;51.114;13.780;2022-11-15T10:44:55;16.00;1.00
573;DHT22;271;51.114;13.780;2022-11-15T10:47:27;15.90;1.00
573;DHT22;271;51.114;13.780;2022-11-15T10:50:03;15.70;1.00
573;DHT22;271;51.114;13.780;2022-11-15T10:52:32;15.70;1.00
573;DHT22;271;51.114;13.780;2022-11-15T10:55:05;15.40;1.00
573;DHT22;271;51.114;13.780;2022-11-15T10:57:37;15.30;1.00
573;DHT22;271;51.114;13.780;2022-11-15T11:00:28;15.10;1.00
573;DHT22;271;51.114;13.780;2022-11-15T11:03:00;15.20;1.00
573;DHT22;271;51.114;13.780;2022-11-15T11:05:33;15.30;1.00
573;DHT22;271;51.114;13.780;2022-11-15T11:08:03;15.50;1.00
573;DHT22;271;51.114;13.780;2022-11-15T11:10:30;15.60;1.00
573;DHT22;271;51.114;13.780;2022-11-15T11:13:13;15.60;1.00
573;DHT22;271;51.114;13.780;2022-11-15T11:15:44;15.80;1.00
573;DHT22;271;51.114;13.780;2022-11-15T11:18:19;15.90;1.00
573;DHT22;271;51.114;13.780;2022-11-15T11:20:57;15.70;1.00
573;DHT22;271;51.114;13.780;2022-11-15T11:23:43;15.30;1.00
573;DHT22;271;51.114;13.780;2022-11-15T11:26:25;15.10;1.00
573;DHT22;271;51.114;13.780;2022-11-15T11:32:02;14.80;1.00
573;DHT22;271;51.114;13.780;2022-11-15T11:34:41;14.70;1.00
573;DHT22;271;51.114;13.780;2022-11-15T11:37:20;14.80;1.00
573;DHT22;271;51.114;13.780;2022-11-15T11:39:56;14.70;1.00
573;DHT22;271;51.114;13.780;2022-11-15T11:42:34;14.60;1.00
573;DHT22;271;51.114;13.780;2022-11-15T11:45:14;14.30;1.00
573;DHT22;271;51.114;13.780;2022-11-15T11:47:48;14.30;1.00
573;DHT22;271;51.114;13.780;2022-11-15T11:50:19;14.30;1.00
573;DHT22;271;51.114;13.780;2022-11-15T11:52:57;14.40;1.00
573;DHT22;271;51.114;13.780;2022-11-15T11:55:28;14.40;1.00
573;DHT22;271;51.114;13.780;2022-11-15T11:58:09;14.20;1.00
573;DHT22;271;51.114;13.780;2022-11-15T12:00:41;14.20;1.00
573;DHT22;271;51.114;13.780;2022-11-15T12:03:17;14.20;1.00
573;DHT22;271;51.114;13.780;2022-11-15T12:05:50;14.10;1.00
573;DHT22;271;51.114;13.780;2022-11-15T12:08:26;14.10;1.00
573;DHT22;271;51.114;13.780;2022-11-15T12:11:06;13.90;1.00
573;DHT22;271;51.114;13.780;2022-11-15T12:13:36;13.80;1.00
573;DHT22;271;51.114;13.780;2022-11-15T12:16:11;13.70;1.00
573;DHT22;271;51.114;13.780;2022-11-15T12:18:47;13.70;1.00
573;DHT22;271;51.114;13.780;2022-11-15T12:21:20;13.60;1.00
573;DHT22;271;51.114;13.780;2022-11-15T12:23:53;13.50;1.00
573;DHT22;271;51.114;13.780;2022-11-15T12:26:27;13.50;1.00
573;DHT22;271;51.114;13.780;2022-11-15T12:28:59;13.50;1.00
573;DHT22;271;51.114;13.780;2022-11-15T12:31:35;13.40;1.00
573;DHT22;271;51.114;13.780;2022-11-15T12:34:15;13.40;1.00
573;DHT22;271;51.114;13.780;2022-11-15T12:36:44;13.40;1.00
573;DHT22;271;51.114;13.780;2022-11-15T12:39:12;13.30;1.00
573;DHT22;271;51.114;13.780;2022-11-15T12:41:42;13.40;1.00
573;DHT22;271;51.114;13.780;2022-11-15T12:44:12;13.50;1.00
573;DHT22;271;51.114;13.780;2022-11-15T12:47:21;13.50;1.00
573;DHT22;271;51.114;13.780;2022-11-15T12:49:51;13.60;1.00
573;DHT22;271;51.114;13.780;2022-11-15T12:52:19;13.80;1.00
573;DHT22;271;51.114;13.780;2022-11-15T12:55:00;13.70;1.00
573;DHT22;271;51.114;13.780;2022-11-15T12:57:37;13.60;1.00
573;DHT22;271;51.114;13.780;2022-11-15T13:03:31;13.70;1.00
573;DHT22;271;51.114;13.780;2022-11-15T13:06:39;13.80;1.00
573;DHT22;271;51.114;13.780;2022-11-15T13:12:08;13.80;1.00
573;DHT22;271;51.114;13.780;2022-11-15T13:14:50;13.80;1.00
573;DHT22;271;51.114;13.780;2022-11-15T13:17:36;14.00;1.00
573;DHT22;271;51.114;13.780;2022-11-15T13:20:20;14.20;1.00
573;DHT22;271;51.114;13.780;2022-11-15T13:22:52;14.30;1.00
573;DHT22;271;51.114;13.780;2022-11-15T13:28:50;14.40;1.00
573;DHT22;271;51.114;13.780;2022-11-15T13:31:29;14.40;1.00
573;DHT22;271;51.114;13.780;2022-11-15T13:34:00;14.30;1.00
573;DHT22;271;51.114;13.780;2022-11-15T13:36:30;14.20;1.00
573;DHT22;271;51.114;13.780;2022-11-15T13:39:03;13.90;1.00
573;DHT22;271;51.114;13.780;2022-11-15T13:41:32;13.50;1.00
573;DHT22;271;51.114;13.780;2022-11-15T13:44:01;13.30;1.00
573;DHT22;271;51.114;13.780;2022-11-15T13:46:30;13.00;1.00
573;DHT22;271;51.114;13.780;2022-11-15T13:49:00;12.80;1.00
573;DHT22;271;51.114;13.780;2022-11-15T13:51:35;12.60;1.00
573;DHT22;271;51.114;13.780;2022-11-15T13:54:09;12.50;1.00
573;DHT22;271;51.114;13.780;2022-11-15T13:56:48;12.40;1.00
573;DHT22;271;51.114;13.780;2022-11-15T13:59:22;12.30;1.00
573;DHT22;271;51.114;13.780;2022-11-15T14:01:51;12.20;1.00
573;DHT22;271;51.114;13.780;2022-11-15T14:04:22;12.30;1.00
573;DHT22;271;51.114;13.780;2022-11-15T14:06:52;12.30;1.00
573;DHT22;271;51.114;13.780;2022-11-15T14:09:32;12.30;1.00
573;DHT22;271;51.114;13.780;2022-11-15T14:12:02;12.20;1.00
573;DHT22;271;51.114;13.780;2022-11-15T14:14:30;12.10;1.00
573;DHT22;271;51.114;13.780;2022-11-15T14:17:02;11.90;1.00
573;DHT22;271;51.114;13.780;2022-11-15T14:19:39;11.80;1.00
573;DHT22;271;51.114;13.780;2022-11-15T14:22:25;11.70;1.00
573;DHT22;271;51.114;13.780;2022-11-15T14:25:22;11.40;1.00
573;DHT22;271;51.114;13.780;2022-11-15T14:28:11;11.30;1.00
573;DHT22;271;51.114;13.780;2022-11-15T14:30:46;11.10;1.00
573;DHT22;271;51.114;13.780;2022-11-15T14:33:23;11.20;1.00
573;DHT22;271;51.114;13.780;2022-11-15T14:35:52;11.10;1.00
573;DHT22;271;51.114;13.780;2022-11-15T14:38:20;11.00;1.00
573;DHT22;271;51.114;13.780;2022-11-15T14:40:49;11.00;1.00
573;DHT22;271;51.114;13.780;2022-11-15T14:43:17;10.90;1.00
573;DHT22;271;51.114;13.780;2022-11-15T14:45:44;10.80;1.00
573;DHT22;271;51.114;13.780;2022-11-15T14:48:11;10.70;1.00
573;DHT22;271;51.114;13.780;2022-11-15T14:50:39;10.60;1.00
573;DHT22;271;51.114;13.780;2022-11-15T14:53:10;10.50;1.00
573;DHT22;271;51.114;13.780;2022-11-15T14:55:38;10.30;1.00
573;DHT22;271;51.114;13.780;2022-11-15T14:58:07;10.30;1.00
573;DHT22;271;51.114;13.780;2022-11-15T15:00:36;10.20;1.00
573;DHT22;271;51.114;13.780;2022-11-15T15:03:05;10.20;1.00
573;DHT22;271;51.114;13.780;2022-11-15T15:05:34;10.10;1.00
573;DHT22;271;51.114;13.780;2022-11-15T15:08:02;10.00;1.00
573;DHT22;271;51.114;13.780;2022-11-15T15:10:32;9.90;1.00
573;DHT22;271;51.114;13.780;2022-11-15T15:13:00;9.70;1.00
573;DHT22;271;51.114;13.780;2022-11-15T15:15:32;9.60;1.00
573;DHT22;271;51.114;13.780;2022-11-15T15:18:00;9.60;1.00
573;DHT22;271;51.114;13.780;2022-11-15T15:20:27;9.50;1.00
573;DHT22;271;51.114;13.780;2022-11-15T15:22:55;9.50;1.00
573;DHT22;271;51.114;13.780;2022-11-15T15:25:27;9.40;1.00
573;DHT22;271;51.114;13.780;2022-11-15T15:27:55;9.30;1.00
573;DHT22;271;51.114;13.780;2022-11-15T15:30:23;9.30;1.00
573;DHT22;271;51.114;13.780;2022-11-15T15:32:53;9.10;1.00
573;DHT22;271;51.114;13.780;2022-11-15T15:35:21;9.00;1.00
573;DHT22;271;51.114;13.780;2022-11-15T15:37:49;8.90;1.00
573;DHT22;271;51.114;13.780;2022-11-15T15:40:18;8.80;1.00
573;DHT22;271;51.114;13.780;2022-11-15T15:42:53;8.70;1.00
573;DHT22;271;51.114;13.780;2022-11-15T15:45:20;8.70;1.00
573;DHT22;271;51.114;13.780;2022-11-15T15:47:48;8.70;1.00
573;DHT22;271;51.114;13.780;2022-11-15T15:50:25;8.70;1.00
573;DHT22;271;51.114;13.780;2022-11-15T15:52:54;8.60;1.00
573;DHT22;271;51.114;13.780;2022-11-15T15:55:22;8.50;1.00
573;DHT22;271;51.114;13.780;2022-11-15T15:57:50;8.40;1.00
573;DHT22;271;51.114;13.780;2022-11-15T16:00:19;8.40;1.00
573;DHT22;271;51.114;13.780;2022-11-15T16:02:46;8.30;1.00
573;DHT22;271;51.114;13.780;2022-11-15T16:05:14;8.20;1.00
573;DHT22;271;51.114;13.780;2022-11-15T16:07:45;8.20;1.00
573;DHT22;271;51.114;13.780;2022-11-15T16:10:20;8.10;1.00
573;DHT22;271;51.114;13.780;2022-11-15T16:12:48;8.10;1.00
573;DHT22;271;51.114;13.780;2022-11-15T16:15:16;8.10;1.00
573;DHT22;271;51.114;13.780;2022-11-15T16:17:47;8.00;1.00
573;DHT22;271;51.114;13.780;2022-11-15T16:20:32;7.90;1.00
573;DHT22;271;51.114;13.780;2022-11-15T16:23:03;7.90;1.00
573;DHT22;271;51.114;13.780;2022-11-15T16:25:34;7.80;1.00
573;DHT22;271;51.114;13.780;2022-11-15T16:28:04;7.80;1.00
573;DHT22;271;51.114;13.780;2022-11-15T16:30:31;7.80;1.00
573;DHT22;271;51.114;13.780;2022-11-15T16:32:59;7.70;1.00
573;DHT22;271;51.114;13.780;2022-11-15T16:35:27;7.70;1.00
573;DHT22;271;51.114;13.780;2022-11-15T16:37:54;7.70;1.00
573;DHT22;271;51.114;13.780;2022-11-15T16:40:29;7.70;1.00
573;DHT22;271;51.114;13.780;2022-11-15T16:42:57;7.60;1.00
573;DHT22;271;51.114;13.780;2022-11-15T16:45:25;7.60;1.00
573;DHT22;271;51.114;13.780;2022-11-15T16:47:54;7.60;1.00
573;DHT22;271;51.114;13.780;2022-11-15T16:50:25;7.60;1.00
573;DHT22;271;51.114;13.780;2022-11-15T16:52:53;7.50;1.00
573;DHT22;271;51.114;13.780;2022-11-15T16:55:22;7.50;1.00
573;DHT22;271;51.114;13.780;2022-11-15T16:57:51;7.50;1.00
573;DHT22;271;51.114;13.780;2022-11-15T17:00:20;7.60;1.00
573;DHT22;271;51.114;13.780;2022-11-15T17:02:50;7.40;1.00
573;DHT22;271;51.114;13.780;2022-11-15T17:05:20;7.30;1.00
573;DHT22;271;51.114;13.780;2022-11-15T17:07:51;7.30;1.00
573;DHT22;271;51.114;13.780;2022-11-15T17:10:21;7.20;1.00
573;DHT22;271;51.114;13.780;2022-11-15T17:12:54;7.20;1.00
573;DHT22;271;51.114;13.780;2022-11-15T17:15:26;7.20;1.00
573;DHT22;271;51.114;13.780;2022-11-15T17:17:54;7.20;1.00
573;DHT22;271;51.114;13.780;2022-11-15T17:20:23;7.10;1.00
573;DHT22;271;51.114;13.780;2022-11-15T17:22:55;7.10;1.00
573;DHT22;271;51.114;13.780;2022-11-15T17:25:23;7.10;1.00
573;DHT22;271;51.114;13.780;2022-11-15T17:27:55;7.00;1.00
573;DHT22;271;51.114;13.780;2022-11-15T17:30:23;7.00;1.00
573;DHT22;271;51.114;13.780;2022-11-15T17:32:51;7.00;1.00
573;DHT22;271;51.114;13.780;2022-11-15T17:35:18;7.00;1.00